Time;durP1;ratioP1;P1;durP2;ratioP2;P2;SDS_P1;SDS_P2;PMS_P1;PMS_P2;Temp;Humidity;BMP_temperature;BMP_pressure;BME280_temperature;BME280_humidity;BME280_pressure;Samples;Min_cycle;Max_cycle;Signal;HPM_P1;HPM_P2
2023/01/25 00:01:30;;;;;;;28.98;26.77;;;;;;;;;;5080732;28;20226;-83
2023/01/25 00:03:57;;;;;;;29.98;27.58;;;;;;;;;;5081396;28;20607;-82
2023/01/25 00:06:24;;;;;;;30.27;27.85;;;;;;;;;;5080826;28;20217;-83
2023/01/25 00:08:52;;;;;;;30.05;27.73;;;;;;;;;;5080962;28;20199;-83
2023/01/25 00:11:20;;;;;;;29.95;27.52;;;;;;;;;;5080634;28;20610;-85
2023/01/25 00:13:47;;;;;;;29.17;26.95;;;;;;;;;;5081075;28;20216;-83
2023/01/25 00:16:14;;;;;;;30.05;27.60;;;;;;;;;;5081222;28;20253;-84
2023/01/25 00:18:41;;;;;;;29.42;26.83;;;;;;;;;;5081060;28;20260;-85
2023/01/25 00:21:14;;;;;;;28.33;25.98;;;;;;;;;;5080992;28;20261;-84
2023/01/25 00:23:41;;;;;;;29.70;27.15;;;;;;;;;;5081128;28;20255;-83
2023/01/25 00:26:10;;;;;;;30.42;28.05;;;;;;;;;;5080891;28;20230;-83
2023/01/25 00:28:37;;;;;;;30.25;27.75;;;;;;;;;;5080874;28;20205;-84
2023/01/25 00:31:04;;;;;;;29.65;27.25;;;;;;;;;;5079968;28;20253;-84
2023/01/25 00:33:40;;;;;;;29.70;27.40;;;;;;;;;;5080118;28;20336;-83
2023/01/25 00:36:27;;;;;;;29.02;26.83;;;;;;;;;;5080786;28;20226;-84
2023/01/25 00:38:54;;;;;;;29.05;26.70;;;;;;;;;;5080558;28;20227;-83
2023/01/25 00:41:23;;;;;;;29.90;27.60;;;;;;;;;;5079793;28;20219;-84
2023/01/25 00:43:50;;;;;;;29.52;27.17;;;;;;;;;;5080833;28;20240;-83
2023/01/25 00:46:17;;;;;;;29.90;27.50;;;;;;;;;;5080637;28;20218;-83
2023/01/25 00:48:45;;;;;;;29.88;27.27;;;;;;;;;;5080510;28;20258;-84
2023/01/25 00:51:12;;;;;;;27.77;25.48;;;;;;;;;;5080200;28;20197;-83
2023/01/25 00:53:39;;;;;;;29.13;26.83;;;;;;;;;;5080379;28;20209;-84
2023/01/25 00:56:06;;;;;;;29.33;27.02;;;;;;;;;;5080110;28;20222;-83
2023/01/25 00:58:34;;;;;;;30.92;28.45;;;;;;;;;;5080598;28;20227;-83
2023/01/25 01:01:01;;;;;;;29.20;26.90;;;;;;;;;;5080465;28;20247;-84
2023/01/25 01:03:28;;;;;;;29.98;27.38;;;;;;;;;;5079256;28;20240;-82
2023/01/25 01:06:02;;;;;;;29.75;27.25;;;;;;;;;;5080352;28;20568;-83
2023/01/25 01:08:29;;;;;;;31.23;28.63;;;;;;;;;;5079622;28;20236;-83
2023/01/25 01:11:00;;;;;;;28.60;26.33;;;;;;;;;;5079406;28;20233;-84
2023/01/25 01:13:27;;;;;;;29.10;26.80;;;;;;;;;;5079099;28;20208;-84
2023/01/25 01:15:55;;;;;;;30.52;28.10;;;;;;;;;;5079796;28;20233;-83
2023/01/25 01:18:22;;;;;;;29.48;27.08;;;;;;;;;;5079764;28;20282;-84
2023/01/25 01:20:50;;;;;;;28.85;26.60;;;;;;;;;;5080102;28;20270;-84
2023/01/25 01:23:17;;;;;;;28.45;26.27;;;;;;;;;;5079420;28;20205;-84
2023/01/25 01:25:44;;;;;;;29.02;26.83;;;;;;;;;;5079833;28;20724;-83
2023/01/25 01:28:11;;;;;;;29.67;27.10;;;;;;;;;;5079415;28;20202;-83
2023/01/25 01:30:38;;;;;;;28.17;25.88;;;;;;;;;;5079357;28;20197;-83
2023/01/25 01:33:06;;;;;;;27.88;25.67;;;;;;;;;;5078980;28;20270;-83
2023/01/25 01:35:33;;;;;;;25.92;24.02;;;;;;;;;;5078810;28;20220;-83
2023/01/25 01:38:01;;;;;;;29.63;27.23;;;;;;;;;;5079537;28;20206;-83
2023/01/25 01:40:27;;;;;;;26.55;24.45;;;;;;;;;;5078816;28;20220;-83
2023/01/25 01:42:59;;;;;;;28.25;26.05;;;;;;;;;;5078074;28;20216;-84
2023/01/25 01:45:56;;;;;;;28.63;26.40;;;;;;;;;;5078909;28;20228;-83
2023/01/25 01:48:30;;;;;;;27.50;25.40;;;;;;;;;;5017078;28;20210;-83
2023/01/25 01:50:58;;;;;;;28.85;26.58;;;;;;;;;;5067546;28;20201;-84
2023/01/25 01:53:25;;;;;;;30.05;27.67;;;;;;;;;;5078682;28;20628;-84
2023/01/25 01:55:53;;;;;;;28.38;26.15;;;;;;;;;;5078911;28;20232;-82
2023/01/25 01:58:21;;;;;;;25.63;23.83;;;;;;;;;;5078783;28;20293;-83
2023/01/25 02:00:48;;;;;;;28.35;25.95;;;;;;;;;;5080183;28;20296;-83
2023/01/25 02:03:16;;;;;;;28.20;25.80;;;;;;;;;;5082788;28;20252;-84
2023/01/25 02:05:47;;;;;;;28.65;26.48;;;;;;;;;;5083163;28;20797;-84
2023/01/25 02:08:15;;;;;;;28.20;25.98;;;;;;;;;;5080411;28;20236;-83
2023/01/25 02:10:43;;;;;;;27.85;25.23;;;;;;;;;;5079569;28;20231;-83
2023/01/25 02:13:10;;;;;;;29.40;27.20;;;;;;;;;;5078519;28;20274;-84
2023/01/25 02:15:38;;;;;;;27.45;25.45;;;;;;;;;;5078245;28;20222;-82
2023/01/25 02:18:06;;;;;;;28.23;26.05;;;;;;;;;;5078556;28;20217;-83
2023/01/25 02:20:36;;;;;;;27.23;25.10;;;;;;;;;;5078616;28;20232;-83
2023/01/25 02:23:07;;;;;;;28.88;26.67;;;;;;;;;;5077924;28;20193;-83
2023/01/25 02:25:36;;;;;;;28.90;26.60;;;;;;;;;;5078316;28;20229;-84
2023/01/25 02:28:06;;;;;;;28.70;26.40;;;;;;;;;;5078733;28;20206;-83
2023/01/25 02:30:33;;;;;;;29.70;27.30;;;;;;;;;;5078467;28;20212;-84
2023/01/25 02:33:00;;;;;;;29.02;26.63;;;;;;;;;;5077879;28;20217;-83
2023/01/25 02:35:37;;;;;;;29.90;27.50;;;;;;;;;;5078079;28;20226;-83
2023/01/25 02:38:05;;;;;;;27.77;25.67;;;;;;;;;;5078308;28;20193;-84
2023/01/25 02:40:33;;;;;;;28.65;26.27;;;;;;;;;;5078618;28;20205;-84
2023/01/25 02:43:01;;;;;;;29.67;27.23;;;;;;;;;;5077562;28;20211;-83
2023/01/25 02:45:30;;;;;;;28.52;26.25;;;;;;;;;;5078011;28;20283;-84
2023/01/25 02:47:57;;;;;;;29.25;26.85;;;;;;;;;;5077881;28;20202;-83
2023/01/25 02:50:24;;;;;;;29.85;27.55;;;;;;;;;;5078196;28;20247;-83
2023/01/25 02:52:51;;;;;;;31.02;28.52;;;;;;;;;;5077365;28;20223;-83
2023/01/25 02:55:18;;;;;;;28.90;26.50;;;;;;;;;;5078085;28;20322;-83
2023/01/25 02:57:45;;;;;;;27.77;25.33;;;;;;;;;;5077951;28;20611;-83
2023/01/25 03:00:14;;;;;;;30.38;28.00;;;;;;;;;;5077611;28;20197;-84
2023/01/25 03:02:41;;;;;;;29.92;27.45;;;;;;;;;;5077524;28;20221;-83
2023/01/25 03:05:08;;;;;;;30.98;28.58;;;;;;;;;;5077736;28;20276;-83
2023/01/25 03:07:35;;;;;;;28.92;26.42;;;;;;;;;;5077702;28;20201;-84
2023/01/25 03:10:02;;;;;;;30.15;27.60;;;;;;;;;;5078055;28;20251;-84
2023/01/25 03:12:29;;;;;;;30.42;27.75;;;;;;;;;;5077519;28;20199;-84
2023/01/25 03:14:58;;;;;;;27.90;25.75;;;;;;;;;;5078230;28;20232;-85
2023/01/25 03:17:26;;;;;;;30.02;27.38;;;;;;;;;;5077705;28;20710;-83
2023/01/25 03:19:53;;;;;;;30.05;27.65;;;;;;;;;;5078047;28;20200;-83
2023/01/25 03:22:21;;;;;;;30.35;27.88;;;;;;;;;;5077060;28;20217;-83
2023/01/25 03:24:48;;;;;;;28.73;26.48;;;;;;;;;;5077848;28;20274;-82
2023/01/25 03:27:17;;;;;;;30.23;27.73;;;;;;;;;;5077896;28;20206;-83
2023/01/25 03:29:44;;;;;;;30.23;27.58;;;;;;;;;;5078153;28;20276;-83
2023/01/25 03:32:11;;;;;;;29.13;26.70;;;;;;;;;;5077203;28;20249;-84
2023/01/25 03:34:39;;;;;;;30.73;28.00;;;;;;;;;;5077820;28;20225;-84
2023/01/25 03:37:06;;;;;;;30.20;27.60;;;;;;;;;;5077599;28;20208;-83
2023/01/25 03:39:33;;;;;;;30.67;27.98;;;;;;;;;;5077662;28;20206;-84
2023/01/25 03:42:00;;;;;;;28.25;26.10;;;;;;;;;;5077244;28;20273;-83
2023/01/25 03:44:27;;;;;;;30.80;28.10;;;;;;;;;;5077694;28;20270;-83
2023/01/25 03:46:54;;;;;;;28.45;26.15;;;;;;;;;;5077483;28;20209;-83
2023/01/25 03:49:21;;;;;;;29.92;27.48;;;;;;;;;;5077342;28;20200;-84
2023/01/25 03:51:50;;;;;;;28.38;26.17;;;;;;;;;;5076928;28;20200;-84
2023/01/25 03:54:17;;;;;;;30.58;27.88;;;;;;;;;;5077416;28;20556;-84
2023/01/25 03:56:44;;;;;;;29.45;26.75;;;;;;;;;;5077852;28;20197;-83
2023/01/25 03:59:11;;;;;;;30.30;27.50;;;;;;;;;;5078252;28;20250;-84
2023/01/25 04:01:38;;;;;;;30.55;27.85;;;;;;;;;;5076657;28;20688;-84
2023/01/25 04:04:05;;;;;;;31.17;28.45;;;;;;;;;;5077621;28;20191;-84
2023/01/25 04:06:32;;;;;;;29.40;26.98;;;;;;;;;;5077967;28;20260;-83
2023/01/25 04:09:01;;;;;;;31.10;28.40;;;;;;;;;;5081076;28;20204;-83
2023/01/25 04:11:28;;;;;;;31.10;28.23;;;;;;;;;;5080352;28;20197;-84
2023/01/25 04:13:55;;;;;;;30.90;28.10;;;;;;;;;;5081132;28;20610;-83
2023/01/25 04:16:22;;;;;;;31.65;28.75;;;;;;;;;;5080948;28;20220;-85
2023/01/25 04:18:49;;;;;;;31.15;28.20;;;;;;;;;;5080701;28;20236;-83
2023/01/25 04:21:16;;;;;;;31.60;28.80;;;;;;;;;;5080593;28;20202;-83
2023/01/25 04:23:43;;;;;;;33.25;30.30;;;;;;;;;;5080507;28;20569;-82
2023/01/25 04:26:13;;;;;;;64.40;57.83;;;;;;;;;;5080877;28;20297;-83
2023/01/25 04:28:40;;;;;;;34.42;31.42;;;;;;;;;;5080975;28;20196;-84
2023/01/25 04:31:07;;;;;;;37.65;34.22;;;;;;;;;;5080714;28;20212;-83
2023/01/25 04:33:35;;;;;;;32.58;29.65;;;;;;;;;;5080236;28;20224;-83
2023/01/25 04:36:02;;;;;;;33.92;30.65;;;;;;;;;;5080829;28;20274;-83
2023/01/25 04:38:29;;;;;;;32.83;29.50;;;;;;;;;;5080652;28;20203;-84
2023/01/25 04:40:56;;;;;;;31.30;28.67;;;;;;;;;;5080325;28;20731;-83
2023/01/25 04:43:25;;;;;;;33.08;29.77;;;;;;;;;;5079802;28;20220;-84
2023/01/25 04:45:52;;;;;;;32.50;29.23;;;;;;;;;;5079887;28;20259;-83
2023/01/25 04:48:19;;;;;;;31.27;28.58;;;;;;;;;;5080610;28;20197;-83
2023/01/25 04:50:46;;;;;;;33.25;30.15;;;;;;;;;;5080457;28;20201;-84
2023/01/25 04:53:13;;;;;;;32.10;28.98;;;;;;;;;;5079761;28;20228;-84
2023/01/25 04:55:40;;;;;;;32.65;29.63;;;;;;;;;;5080987;28;20229;-85
2023/01/25 04:58:07;;;;;;;33.50;30.20;;;;;;;;;;5080407;28;20232;-86
2023/01/25 05:00:36;;;;;;;34.10;30.67;;;;;;;;;;5080260;28;20221;-84
2023/01/25 05:03:03;;;;;;;33.85;29.58;;;;;;;;;;5079499;28;20228;-84
2023/01/25 05:05:30;;;;;;;32.95;29.65;;;;;;;;;;5080103;28;20285;-85
2023/01/25 05:07:57;;;;;;;30.08;27.15;;;;;;;;;;5080009;28;20205;-83
2023/01/25 05:10:24;;;;;;;30.90;27.90;;;;;;;;;;5080170;28;20661;-83
2023/01/25 05:12:51;;;;;;;30.33;27.65;;;;;;;;;;5079429;28;20202;-83
2023/01/25 05:15:18;;;;;;;32.05;28.95;;;;;;;;;;5079860;28;20224;-83
2023/01/25 05:17:47;;;;;;;31.75;28.75;;;;;;;;;;5079552;28;20266;-83
2023/01/25 05:20:14;;;;;;;30.70;27.80;;;;;;;;;;5079499;28;20195;-84
2023/01/25 05:22:41;;;;;;;31.38;28.33;;;;;;;;;;5078675;28;20220;-85
2023/01/25 05:26:59;;;;;;;29.85;27.02;;;;;;;;;;5079189;28;20224;-83
2023/01/25 05:27:54;;;;;;;32.80;29.80;;;;;;;;;;5079531;28;20207;-83
2023/01/25 05:30:21;;;;;;;31.85;28.63;;;;;;;;;;5078961;28;20229;-84
2023/01/25 05:32:50;;;;;;;30.73;28.00;;;;;;;;;;5078669;28;20560;-83
2023/01/25 05:35:17;;;;;;;32.33;29.35;;;;;;;;;;5079457;28;20260;-83
2023/01/25 05:37:44;;;;;;;32.42;29.38;;;;;;;;;;5079695;28;20664;-83
2023/01/25 05:40:12;;;;;;;31.30;28.40;;;;;;;;;;5079968;28;20193;-84
2023/01/25 05:42:39;;;;;;;34.67;30.92;;;;;;;;;;5078637;28;20221;-83
2023/01/25 05:45:06;;;;;;;32.90;29.08;;;;;;;;;;5079360;28;20220;-83
2023/01/25 05:47:33;;;;;;;33.35;29.85;;;;;;;;;;5078976;28;20235;-83
2023/01/25 05:50:02;;;;;;;33.13;29.77;;;;;;;;;;5078792;28;20258;-83
2023/01/25 05:52:29;;;;;;;33.60;30.45;;;;;;;;;;5078746;28;20655;-83
2023/01/25 05:54:56;;;;;;;33.10;29.55;;;;;;;;;;5078182;28;20226;-84
2023/01/25 05:57:23;;;;;;;36.05;27.23;;;;;;;;;;5080068;28;20205;-83
2023/01/25 05:59:50;;;;;;;31.52;28.48;;;;;;;;;;5079166;28;20259;-83
2023/01/25 06:02:16;;;;;;;33.83;30.38;;;;;;;;;;5078334;28;20229;-83
2023/01/25 06:04:43;;;;;;;32.90;29.60;;;;;;;;;;5078458;28;20648;-84
2023/01/25 06:07:12;;;;;;;33.08;29.83;;;;;;;;;;5079257;28;20212;-83
2023/01/25 06:09:39;;;;;;;31.75;28.70;;;;;;;;;;5078819;28;20206;-85
2023/01/25 06:12:06;;;;;;;31.23;27.52;;;;;;;;;;5078010;28;20247;-84
2023/01/25 06:14:33;;;;;;;30.90;28.00;;;;;;;;;;5078627;28;20222;-85
2023/01/25 06:17:00;;;;;;;31.83;28.75;;;;;;;;;;5094624;28;20220;-85
2023/01/25 06:19:27;;;;;;;31.30;28.23;;;;;;;;;;5099798;28;20205;-84
2023/01/25 06:21:54;;;;;;;29.58;26.75;;;;;;;;;;5099263;28;20207;-84
2023/01/25 06:24:22;;;;;;;31.55;28.55;;;;;;;;;;5102014;28;20204;-85
2023/01/25 06:26:49;;;;;;;32.78;29.42;;;;;;;;;;5105569;28;20246;-84
2023/01/25 06:29:17;;;;;;;31.50;28.50;;;;;;;;;;5105877;28;20245;-84
2023/01/25 06:31:44;;;;;;;31.70;28.65;;;;;;;;;;5099611;28;20210;-85
2023/01/25 06:34:11;;;;;;;31.65;28.75;;;;;;;;;;5099839;28;20597;-85
2023/01/25 06:36:37;;;;;;;32.13;28.92;;;;;;;;;;5099704;28;20213;-84
2023/01/25 06:39:05;;;;;;;32.10;28.95;;;;;;;;;;5099763;28;20196;-83
2023/01/25 06:41:33;;;;;;;32.55;29.23;;;;;;;;;;5099366;28;20219;-84
2023/01/25 06:44:00;;;;;;;31.48;28.52;;;;;;;;;;5099278;28;20225;-84
2023/01/25 06:46:27;;;;;;;31.33;28.25;;;;;;;;;;5099833;28;20238;-84
2023/01/25 06:48:54;;;;;;;34.88;31.20;;;;;;;;;;5099088;28;20204;-83
2023/01/25 06:51:21;;;;;;;32.42;29.13;;;;;;;;;;5099202;28;20229;-84
2023/01/25 06:53:48;;;;;;;34.22;30.70;;;;;;;;;;5099526;28;20203;-85
2023/01/25 06:56:16;;;;;;;37.92;30.77;;;;;;;;;;5099555;28;20219;-83
2023/01/25 06:58:44;;;;;;;45.70;31.77;;;;;;;;;;5100194;28;20209;-83
2023/01/25 07:01:13;;;;;;;34.40;30.95;;;;;;;;;;5099672;28;20205;-85
2023/01/25 07:03:40;;;;;;;39.67;32.58;;;;;;;;;;5099355;28;20227;-84
2023/01/25 07:06:07;;;;;;;27.27;24.88;;;;;;;;;;5098400;28;20228;-84
2023/01/25 07:08:35;;;;;;;37.22;30.70;;;;;;;;;;5098634;28;20541;-83
2023/01/25 07:11:03;;;;;;;33.47;30.08;;;;;;;;;;5098491;28;20204;-85
2023/01/25 07:13:30;;;;;;;38.47;30.92;;;;;;;;;;5097130;28;20226;-84
2023/01/25 07:16:00;;;;;;;42.28;34.15;;;;;;;;;;5097543;28;20230;-83
2023/01/25 07:18:28;;;;;;;41.97;31.23;;;;;;;;;;5097689;28;20266;-83
2023/01/25 07:20:56;;;;;;;30.25;27.33;;;;;;;;;;5100090;28;20272;-89
2023/01/25 07:23:23;;;;;;;37.50;31.42;;;;;;;;;;5096563;28;20222;-86
2023/01/25 07:25:50;;;;;;;34.70;31.08;;;;;;;;;;5094857;28;20571;-89
2023/01/25 07:28:18;;;;;;;45.08;30.83;;;;;;;;;;5094148;28;20254;-90
2023/01/25 07:30:45;;;;;;;37.28;32.38;;;;;;;;;;5094351;28;20225;-88
2023/01/25 07:33:13;;;;;;;39.17;32.15;;;;;;;;;;5094381;28;20208;-89
2023/01/25 07:35:51;;;;;;;41.13;30.30;;;;;;;;;;5093769;28;20636;-89
2023/01/25 07:38:18;;;;;;;33.42;29.83;;;;;;;;;;5088105;28;20185;-89
2023/01/25 07:40:51;;;;;;;40.22;31.52;;;;;;;;;;5074367;28;20200;-86
2023/01/25 07:43:18;;;;;;;34.28;30.63;;;;;;;;;;5076319;28;20699;-89
2023/01/25 07:45:47;;;;;;;47.70;32.05;;;;;;;;;;5077355;28;20698;-89
2023/01/25 07:48:16;;;;;;;39.55;30.23;;;;;;;;;;5077447;28;20294;-89
2023/01/25 07:50:45;;;;;;;37.92;32.25;;;;;;;;;;5077791;28;20197;-89
2023/01/25 07:53:12;;;;;;;37.40;31.35;;;;;;;;;;5076991;28;20200;-89
2023/01/25 07:55:39;;;;;;;34.38;30.92;;;;;;;;;;5077177;28;20227;-89
2023/01/25 07:58:06;;;;;;;44.15;32.08;;;;;;;;;;5077659;28;20213;-89
2023/01/25 08:00:33;;;;;;;45.83;34.97;;;;;;;;;;5079118;28;20230;-83
2023/01/25 08:03:00;;;;;;;39.95;32.83;;;;;;;;;;5084162;28;20758;-81
2023/01/25 08:05:29;;;;;;;50.33;32.10;;;;;;;;;;5082373;28;20224;-82
2023/01/25 08:07:56;;;;;;;44.65;31.80;;;;;;;;;;5081243;28;20256;-88
2023/01/25 08:10:23;;;;;;;33.85;30.25;;;;;;;;;;5077552;28;20208;-88
2023/01/25 08:12:50;;;;;;;44.25;30.52;;;;;;;;;;5076659;28;20724;-91
2023/01/25 08:15:17;;;;;;;46.70;31.77;;;;;;;;;;5083963;28;20220;-84
2023/01/25 08:17:44;;;;;;;45.28;32.88;;;;;;;;;;5084381;28;20230;-81
2023/01/25 08:20:12;;;;;;;43.05;32.40;;;;;;;;;;5103350;28;20204;-82
2023/01/25 08:22:41;;;;;;;32.63;29.42;;;;;;;;;;5103675;28;20246;-83
2023/01/25 08:25:08;;;;;;;37.38;31.25;;;;;;;;;;5105079;28;20244;-83
2023/01/25 08:27:35;;;;;;;45.35;32.47;;;;;;;;;;5104793;28;20234;-81
2023/01/25 08:30:02;;;;;;;35.58;31.67;;;;;;;;;;5104362;28;20203;-82
2023/01/25 08:32:29;;;;;;;33.42;29.58;;;;;;;;;;5103632;28;20209;-83
2023/01/25 08:34:56;;;;;;;32.78;28.77;;;;;;;;;;5104214;28;20222;-82
2023/01/25 08:37:28;;;;;;;42.17;30.20;;;;;;;;;;5103847;28;20623;-82
2023/01/25 08:39:58;;;;;;;45.25;29.13;;;;;;;;;;5104603;28;20196;-81
2023/01/25 08:42:25;;;;;;;47.85;30.92;;;;;;;;;;5101741;28;20209;-83
2023/01/25 08:44:52;;;;;;;42.08;31.63;;;;;;;;;;5103974;28;20219;-83
2023/01/25 08:47:19;;;;;;;35.42;31.55;;;;;;;;;;5103953;28;20212;-82
2023/01/25 08:49:46;;;;;;;40.88;29.48;;;;;;;;;;5104126;28;20263;-83
2023/01/25 08:52:14;;;;;;;42.65;30.58;;;;;;;;;;5102372;28;20250;-83
2023/01/25 08:54:43;;;;;;;44.47;31.50;;;;;;;;;;5100224;28;20247;-83
2023/01/25 08:57:11;;;;;;;53.05;32.25;;;;;;;;;;5102099;28;20197;-82
2023/01/25 08:59:38;;;;;;;36.08;29.73;;;;;;;;;;5102545;28;20205;-85
2023/01/25 09:02:05;;;;;;;42.50;31.63;;;;;;;;;;5100307;28;20217;-82
2023/01/25 09:04:32;;;;;;;40.20;31.50;;;;;;;;;;5101176;28;20292;-82
2023/01/25 09:06:59;;;;;;;53.60;30.00;;;;;;;;;;5103058;28;20202;-83
2023/01/25 09:09:28;;;;;;;53.22;29.15;;;;;;;;;;5103518;28;20229;-79
2023/01/25 09:11:55;;;;;;;47.92;33.30;;;;;;;;;;5098738;28;20299;-81
2023/01/25 09:14:24;;;;;;;37.78;31.33;;;;;;;;;;5101133;28;20231;-81
2023/01/25 09:16:51;;;;;;;39.72;30.90;;;;;;;;;;5101975;28;20555;-82
2023/01/25 09:19:18;;;;;;;50.10;31.45;;;;;;;;;;5102711;28;20212;-82
2023/01/25 09:21:45;;;;;;;35.30;31.27;;;;;;;;;;5101683;28;20208;-83
2023/01/25 09:24:12;;;;;;;53.47;33.30;;;;;;;;;;5103379;28;20269;-83
2023/01/25 09:26:40;;;;;;;50.20;31.92;;;;;;;;;;5104000;28;20608;-82
2023/01/25 09:29:07;;;;;;;63.33;33.38;;;;;;;;;;5103329;28;20206;-82
2023/01/25 09:31:38;;;;;;;36.17;30.15;;;;;;;;;;5102957;28;20208;-82
2023/01/25 09:34:05;;;;;;;49.60;30.65;;;;;;;;;;5103606;28;20197;-82
2023/01/25 09:36:32;;;;;;;43.88;32.22;;;;;;;;;;5102287;28;20254;-82
2023/01/25 09:38:59;;;;;;;55.05;31.42;;;;;;;;;;5101531;28;20213;-81
2023/01/25 09:41:34;;;;;;;44.92;32.35;;;;;;;;;;5100328;28;20254;-81
2023/01/25 09:44:09;;;;;;;52.22;32.20;;;;;;;;;;5100806;28;20245;-82
2023/01/25 09:46:40;;;;;;;43.60;32.05;;;;;;;;;;5101384;28;20215;-80
2023/01/25 09:49:16;;;;;;;49.33;31.40;;;;;;;;;;5100893;28;20277;-81
2023/01/25 09:51:50;;;;;;;57.97;31.40;;;;;;;;;;5100452;28;20631;-83
2023/01/25 09:54:19;;;;;;;37.78;29.23;;;;;;;;;;5101761;28;20183;-81
2023/01/25 09:56:49;;;;;;;52.90;32.58;;;;;;;;;;5101928;28;20235;-80
2023/01/25 09:59:17;;;;;;;43.95;32.22;;;;;;;;;;5101707;28;20211;-80
2023/01/25 10:01:49;;;;;;;54.05;31.65;;;;;;;;;;5100408;28;20645;-80
2023/01/25 10:04:17;;;;;;;39.10;31.63;;;;;;;;;;5100337;28;20257;-81
2023/01/25 10:06:45;;;;;;;46.53;30.42;;;;;;;;;;5101944;28;20282;-81
2023/01/25 10:09:16;;;;;;;43.00;30.70;;;;;;;;;;5101746;28;20317;-79
2023/01/25 10:11:44;;;;;;;46.08;31.17;;;;;;;;;;5100727;28;20213;-80
2023/01/25 10:14:13;;;;;;;51.38;31.75;;;;;;;;;;5101449;28;20201;-81
2023/01/25 10:16:44;;;;;;;51.47;31.17;;;;;;;;;;5101528;28;20292;-80
2023/01/25 10:19:17;;;;;;;57.05;32.85;;;;;;;;;;5101422;28;20262;-80
2023/01/25 10:21:47;;;;;;;48.05;35.15;;;;;;;;;;5100749;28;20614;-80
2023/01/25 10:24:24;;;;;;;28.00;25.20;;;;;;;;;;5100204;28;20253;-81
2023/01/25 10:26:56;;;;;;;38.97;29.25;;;;;;;;;;5101192;28;20185;-80
2023/01/25 10:29:23;;;;;;;37.13;30.50;;;;;;;;;;5099885;28;20294;-81
2023/01/25 10:31:52;;;;;;;44.03;30.65;;;;;;;;;;5098919;28;20209;-79
2023/01/25 10:34:21;;;;;;;47.60;33.53;;;;;;;;;;5101050;28;20195;-80
2023/01/25 10:36:49;;;;;;;38.08;29.95;;;;;;;;;;5100693;28;20204;-81
2023/01/25 10:39:16;;;;;;;35.15;29.65;;;;;;;;;;5100785;28;20248;-81
2023/01/25 10:41:45;;;;;;;34.30;27.88;;;;;;;;;;5102677;28;20223;-81
2023/01/25 10:44:23;;;;;;;33.58;27.13;;;;;;;;;;5103085;28;20228;-81
2023/01/25 10:46:52;;;;;;;30.63;27.35;;;;;;;;;;5109751;28;20229;-82
2023/01/25 10:49:24;;;;;;;34.65;28.35;;;;;;;;;;5113475;28;20200;-82
2023/01/25 10:51:51;;;;;;;33.90;27.58;;;;;;;;;;5113174;28;20203;-81
2023/01/25 10:54:18;;;;;;;36.30;29.05;;;;;;;;;;5104898;28;20202;-81
2023/01/25 10:56:46;;;;;;;33.70;29.80;;;;;;;;;;5104137;28;20204;-81
2023/01/25 10:59:18;;;;;;;40.17;30.60;;;;;;;;;;5103663;28;20204;-80
2023/01/25 11:01:45;;;;;;;29.95;26.80;;;;;;;;;;5103342;28;20216;-80
2023/01/25 11:04:33;;;;;;;34.97;29.73;;;;;;;;;;5103304;28;20211;-80
2023/01/25 11:07:01;;;;;;;36.92;28.48;;;;;;;;;;5103418;28;20279;-82
2023/01/25 11:09:39;;;;;;;32.25;28.83;;;;;;;;;;5102686;28;20235;-81
2023/01/25 11:12:16;;;;;;;28.27;25.63;;;;;;;;;;5099094;28;20230;-80
2023/01/25 11:14:43;;;;;;;39.92;27.73;;;;;;;;;;5100397;28;20299;-81
2023/01/25 11:17:21;;;;;;;52.13;27.55;;;;;;;;;;5104072;28;20303;-81
2023/01/25 11:19:49;;;;;;;28.92;26.48;;;;;;;;;;5102929;28;20245;-79
2023/01/25 11:22:22;;;;;;;29.67;26.98;;;;;;;;;;5101111;28;20212;-79
2023/01/25 11:24:49;;;;;;;26.30;23.55;;;;;;;;;;5102088;28;20678;-79
2023/01/25 11:27:18;;;;;;;31.25;27.75;;;;;;;;;;5102338;28;20257;-80
2023/01/25 11:29:46;;;;;;;31.67;28.33;;;;;;;;;;5101869;28;20211;-79
2023/01/25 11:32:19;;;;;;;30.90;26.13;;;;;;;;;;5101516;28;20211;-78
2023/01/25 11:34:46;;;;;;;38.33;26.92;;;;;;;;;;5102145;28;20768;-78
2023/01/25 11:37:34;;;;;;;29.48;26.45;;;;;;;;;;5102501;28;20222;-79
2023/01/25 11:40:11;;;;;;;34.08;22.88;;;;;;;;;;5094721;28;20208;-79
2023/01/25 11:42:42;;;;;;;35.53;25.85;;;;;;;;;;5100776;28;20262;-80
2023/01/25 11:45:36;;;;;;;50.13;29.55;;;;;;;;;;5101882;28;20218;-80
2023/01/25 11:48:30;;;;;;;35.47;28.70;;;;;;;;;;5101952;28;20229;-80
2023/01/25 11:51:01;;;;;;;33.13;28.20;;;;;;;;;;5056243;28;20202;-81
2023/01/25 11:53:35;;;;;;;29.05;26.00;;;;;;;;;;5102081;28;20214;-81
2023/01/25 11:56:06;;;;;;;33.42;28.00;;;;;;;;;;5103239;28;20298;-81
2023/01/25 11:58:40;;;;;;;22.80;21.05;;;;;;;;;;5103640;28;20245;-80
2023/01/25 12:01:11;;;;;;;28.45;25.42;;;;;;;;;;5102836;28;20239;-80
2023/01/25 12:03:51;;;;;;;25.98;23.52;;;;;;;;;;5102267;28;20232;-81
2023/01/25 12:06:22;;;;;;;39.60;27.42;;;;;;;;;;5101515;28;20264;-80
2023/01/25 12:08:56;;;;;;;30.35;26.40;;;;;;;;;;5102762;28;20700;-80
2023/01/25 12:11:31;;;;;;;27.27;24.92;;;;;;;;;;5102760;28;20245;-81
2023/01/25 12:14:02;;;;;;;31.75;28.35;;;;;;;;;;5103240;28;20180;-80
2023/01/25 12:16:38;;;;;;;27.38;24.65;;;;;;;;;;5102843;28;20188;-80
2023/01/25 12:19:20;;;;;;;24.13;22.00;;;;;;;;;;5102592;28;20223;-79
2023/01/25 12:21:56;;;;;;;29.05;25.42;;;;;;;;;;5099341;28;20258;-81
2023/01/25 12:24:32;;;;;;;26.65;24.45;;;;;;;;;;5102346;28;20288;-80
2023/01/25 12:27:05;;;;;;;46.00;27.20;;;;;;;;;;5101612;28;20193;-80
2023/01/25 12:29:35;;;;;;;30.35;26.23;;;;;;;;;;5102234;28;20687;-80
2023/01/25 12:32:07;;;;;;;28.48;24.58;;;;;;;;;;5101262;28;20685;-79
2023/01/25 12:34:36;;;;;;;22.15;19.98;;;;;;;;;;5101881;28;20224;-79
2023/01/25 12:37:06;;;;;;;53.42;27.58;;;;;;;;;;5101932;28;20204;-77
2023/01/25 12:39:35;;;;;;;34.80;26.23;;;;;;;;;;5100633;28;20199;-83
2023/01/25 12:42:05;;;;;;;35.28;28.73;;;;;;;;;;5100928;28;20197;-79
2023/01/25 12:44:35;;;;;;;34.03;28.30;;;;;;;;;;5100533;28;20253;-79
2023/01/25 12:47:06;;;;;;;48.28;30.30;;;;;;;;;;5101038;28;20222;-80
2023/01/25 12:49:35;;;;;;;42.35;30.38;;;;;;;;;;5100426;28;20194;-80
2023/01/25 12:52:06;;;;;;;32.30;29.10;;;;;;;;;;5100716;28;20615;-79
2023/01/25 12:54:35;;;;;;;30.13;26.33;;;;;;;;;;5100820;28;20214;-78
2023/01/25 12:57:08;;;;;;;33.05;29.02;;;;;;;;;;5101073;28;20238;-78
2023/01/25 12:59:40;;;;;;;45.67;27.40;;;;;;;;;;5100282;28;20213;-79
2023/01/25 13:02:19;;;;;;;30.17;27.08;;;;;;;;;;5100665;28;20213;-78
2023/01/25 13:04:53;;;;;;;32.58;28.42;;;;;;;;;;5100820;28;20301;-78
2023/01/25 13:07:22;;;;;;;38.20;29.30;;;;;;;;;;5100760;28;20191;-80
2023/01/25 13:09:53;;;;;;;36.42;29.35;;;;;;;;;;5100459;28;20620;-78
2023/01/25 13:12:23;;;;;;;32.88;28.25;;;;;;;;;;5100046;28;20206;-79
2023/01/25 13:14:50;;;;;;;32.28;26.08;;;;;;;;;;5100578;28;20222;-79
2023/01/25 13:17:25;;;;;;;30.30;27.10;;;;;;;;;;5102232;28;20205;-79
2023/01/25 13:19:53;;;;;;;41.25;30.40;;;;;;;;;;5102538;28;20214;-80
2023/01/25 13:22:39;;;;;;;49.78;29.17;;;;;;;;;;5102130;28;20204;-80
2023/01/25 13:25:09;;;;;;;31.50;28.10;;;;;;;;;;5101771;28;20580;-78
2023/01/25 13:27:37;;;;;;;33.03;29.52;;;;;;;;;;5102466;28;20235;-81
2023/01/25 13:30:24;;;;;;;37.08;28.13;;;;;;;;;;5102672;28;20562;-80
2023/01/25 13:32:56;;;;;;;37.85;28.02;;;;;;;;;;5101863;28;20708;-80
2023/01/25 13:35:27;;;;;;;25.73;23.33;;;;;;;;;;5102530;28;20226;-80
2023/01/25 13:37:58;;;;;;;35.22;28.02;;;;;;;;;;5102325;28;20206;-80
2023/01/25 13:40:29;;;;;;;35.00;28.88;;;;;;;;;;5101609;28;20609;-79
2023/01/25 13:43:02;;;;;;;45.67;29.77;;;;;;;;;;5101512;28;20527;-80
2023/01/25 13:45:32;;;;;;;47.25;30.67;;;;;;;;;;5101485;28;20631;-79
2023/01/25 13:48:01;;;;;;;36.20;28.55;;;;;;;;;;5101912;28;20627;-79
2023/01/25 13:50:29;;;;;;;40.63;28.40;;;;;;;;;;5102776;28;20670;-80
2023/01/25 13:52:57;;;;;;;28.48;25.25;;;;;;;;;;5101120;28;20208;-80
2023/01/25 13:55:24;;;;;;;38.72;30.42;;;;;;;;;;5102387;28;20314;-79
2023/01/25 13:57:51;;;;;;;24.98;22.95;;;;;;;;;;5102220;28;20315;-80
2023/01/25 14:00:20;;;;;;;44.78;37.22;;;;;;;;;;5102263;28;20208;-79
2023/01/25 14:02:51;;;;;;;126.05;72.30;;;;;;;;;;5100572;28;20212;-80
2023/01/25 14:05:19;;;;;;;26.08;23.90;;;;;;;;;;5101587;28;20272;-80
2023/01/25 14:07:47;;;;;;;34.08;30.48;;;;;;;;;;5101791;28;20234;-79
2023/01/25 14:10:16;;;;;;;40.47;30.52;;;;;;;;;;5102048;28;20535;-79
2023/01/25 14:12:44;;;;;;;43.80;34.65;;;;;;;;;;5100515;28;20196;-79
2023/01/25 14:15:17;;;;;;;59.97;40.95;;;;;;;;;;5101143;28;20632;-80
2023/01/25 14:17:45;;;;;;;62.67;50.50;;;;;;;;;;5100640;28;20706;-79
2023/01/25 14:20:18;;;;;;;79.28;56.90;;;;;;;;;;5098832;28;20218;-77
2023/01/25 14:22:48;;;;;;;37.13;32.42;;;;;;;;;;5099175;28;20196;-79
2023/01/25 14:25:16;;;;;;;31.83;28.75;;;;;;;;;;5091185;28;20224;-79
2023/01/25 14:27:45;;;;;;;26.50;24.60;;;;;;;;;;5096473;28;20199;-79